createdAt,value
2018-06-14T00:00:54.316Z,99033.27
2018-06-14T00:03:23.552Z,99033.30
2018-06-14T00:05:52.793Z,99032.28
2018-06-14T00:08:22.024Z,99032.97
2018-06-14T00:10:51.225Z,99031.68
2018-06-14T00:13:20.723Z,99028.52
2018-06-14T00:15:49.980Z,99022.35
2018-06-14T00:18:19.167Z,99025.10
2018-06-14T00:20:48.419Z,99029.70
2018-06-14T00:23:17.634Z,99027.88
2018-06-14T00:25:47.029Z,99026.88
2018-06-14T00:28:16.236Z,99027.55
2018-06-14T00:30:45.417Z,99025.14
2018-06-14T00:33:14.607Z,99019.52
2018-06-14T00:35:43.881Z,99011.03
2018-06-14T00:38:13.058Z,99020.12
2018-06-14T00:40:42.193Z,99018.27
2018-06-14T00:43:11.505Z,99015.36
2018-06-14T00:45:41.007Z,99012.44
2018-06-14T00:48:10.133Z,98986.29
2018-06-14T00:55:35.559Z,99019.59
2018-06-14T00:58:04.805Z,99016.44
2018-06-14T01:00:33.885Z,99014.61
2018-06-14T01:03:03.143Z,99014.31
2018-06-14T01:05:32.247Z,99008.14
2018-06-14T01:08:02.690Z,99005.44
2018-06-14T01:10:31.836Z,99007.27
2018-06-14T01:13:01.022Z,99010.27
2018-06-14T01:15:30.309Z,99013.44
2018-06-14T01:17:59.970Z,99014.08
2018-06-14T01:20:29.186Z,99018.15
2018-06-14T01:22:58.883Z,99011.49
2018-06-14T01:25:28.062Z,99018.95
2018-06-14T01:27:57.359Z,99014.46
2018-06-14T01:30:26.597Z,99014.72
2018-06-14T01:32:55.717Z,99020.97
2018-06-14T01:35:24.885Z,99023.19
2018-06-14T01:38:05.177Z,99024.91
2018-06-14T01:40:34.342Z,99016.66
2018-06-14T01:43:03.431Z,99016.36
2018-06-14T01:45:32.605Z,99018.56
2018-06-14T01:48:01.696Z,99023.09
2018-06-14T01:50:30.799Z,99019.32
2018-06-14T01:52:59.955Z,99025.03
2018-06-14T01:55:32.061Z,99023.67
2018-06-14T01:58:01.713Z,99013.84
2018-06-14T02:00:30.785Z,99016.39
2018-06-14T02:02:59.891Z,99013.50
2018-06-14T02:05:29.357Z,99010.61
2018-06-14T02:07:58.884Z,99017.86
2018-06-14T02:10:28.773Z,99019.09
2018-06-14T02:12:58.291Z,99017.98
2018-06-14T02:15:28.613Z,99017.03
2018-06-14T02:17:58.454Z,99016.44
2018-06-14T02:20:27.785Z,99014.61
2018-06-14T02:22:57.035Z,99014.52
2018-06-14T02:25:26.104Z,99016.20
2018-06-14T02:27:55.212Z,99015.09
2018-06-14T02:30:25.328Z,99006.54
2018-06-14T02:32:54.628Z,99008.67
2018-06-14T02:35:23.831Z,99001.22
2018-06-14T02:37:53.044Z,99000.79
2018-06-14T02:40:22.249Z,99012.31
2018-06-14T02:42:51.386Z,99005.81
2018-06-14T02:45:20.505Z,99008.41
2018-06-14T02:47:49.682Z,99015.56
2018-06-14T02:50:18.857Z,99009.98
2018-06-14T02:52:48.000Z,99011.44
2018-06-14T02:55:17.985Z,99016.69
2018-06-14T02:57:47.107Z,99011.59
2018-06-14T03:00:16.225Z,99014.77
2018-06-14T03:02:45.452Z,99018.19
2018-06-14T03:05:14.598Z,99017.19
2018-06-14T03:07:43.665Z,99018.52
2018-06-14T03:10:12.823Z,99015.14
2018-06-14T03:12:41.919Z,98908.80
2018-06-14T03:15:11.158Z,99016.20
2018-06-14T03:17:40.275Z,99017.77
2018-06-14T03:20:09.394Z,99013.07
2018-06-14T03:22:38.639Z,99011.69
2018-06-14T03:25:07.792Z,99015.68
2018-06-14T03:27:36.940Z,99012.91
2018-06-14T03:30:06.103Z,99012.34
2018-06-14T03:32:35.344Z,99008.98
2018-06-14T03:35:04.625Z,99006.77
2018-06-14T03:37:33.768Z,99001.67
2018-06-14T03:40:02.915Z,99003.97
2018-06-14T03:42:32.130Z,99000.48
2018-06-14T03:45:01.290Z,98970.50
2018-06-14T03:47:30.404Z,98997.17
2018-06-14T03:49:59.583Z,99000.63
2018-06-14T03:52:28.784Z,99001.66
2018-06-14T03:54:57.895Z,99005.88
2018-06-14T03:57:27.059Z,99010.61
2018-06-14T03:59:56.245Z,99008.98
2018-06-14T04:02:25.388Z,99006.27
2018-06-14T04:04:54.511Z,99012.40
2018-06-14T04:07:23.602Z,99013.27
2018-06-14T04:09:52.725Z,99010.57
2018-06-14T04:12:21.901Z,99007.27
2018-06-14T04:14:51.047Z,99004.11
2018-06-14T04:17:20.182Z,99008.37
2018-06-14T04:19:49.383Z,98822.56
2018-06-14T04:22:18.470Z,99005.44
2018-06-14T04:24:47.657Z,99003.88
2018-06-14T04:27:17.387Z,99008.11
2018-06-14T04:29:58.245Z,99011.79
2018-06-14T04:32:27.415Z,99011.72
2018-06-14T04:34:56.650Z,99017.77
2018-06-14T04:37:25.787Z,99008.64
2018-06-14T04:39:54.968Z,99014.31
2018-06-14T04:42:24.416Z,99007.45
2018-06-14T04:44:54.397Z,99008.29
2018-06-14T04:47:25.477Z,99003.80
2018-06-14T04:49:55.238Z,99004.95
2018-06-14T04:52:24.378Z,99002.51
2018-06-14T04:54:53.454Z,99009.06
2018-06-14T04:57:22.733Z,99011.56
2018-06-14T04:59:51.840Z,99006.97
2018-06-14T05:02:21.710Z,99005.67
2018-06-14T05:04:50.838Z,99009.94
2018-06-14T05:07:20.314Z,99007.27
2018-06-14T05:09:49.556Z,99010.66
2018-06-14T05:12:18.618Z,99009.01
2018-06-14T05:14:47.667Z,99011.20
2018-06-14T05:17:16.809Z,99007.89
2018-06-14T05:19:46.053Z,99014.75
2018-06-14T05:22:15.385Z,99014.66
2018-06-14T05:24:44.671Z,99010.41
2018-06-14T05:27:13.935Z,99013.33
2018-06-14T05:29:43.047Z,99015.73
2018-06-14T05:32:12.737Z,99021.20
2018-06-14T05:34:42.254Z,99014.89
2018-06-14T05:37:11.759Z,99014.94
2018-06-14T05:39:40.914Z,99019.20
2018-06-14T05:42:10.093Z,99018.99
2018-06-14T05:44:39.580Z,99022.86
2018-06-14T05:47:08.693Z,99017.93
2018-06-14T05:49:37.837Z,99023.27
2018-06-14T05:52:06.982Z,99025.58
2018-06-14T05:54:36.131Z,99027.00
2018-06-14T05:57:05.722Z,99027.94
2018-06-14T05:59:35.014Z,99028.52
2018-06-14T06:02:04.266Z,99030.12
2018-06-14T06:04:33.435Z,99020.43
2018-06-14T06:07:02.662Z,99014.12
2018-06-14T06:09:31.868Z,99018.56
2018-06-14T06:12:01.011Z,99019.36
2018-06-14T06:14:30.154Z,99017.75
2018-06-14T06:16:59.470Z,99014.56
2018-06-14T06:19:28.921Z,99018.42
2018-06-14T06:21:58.291Z,99018.53
2018-06-14T06:24:27.446Z,99019.33
2018-06-14T06:26:56.615Z,99016.79
2018-06-14T06:29:25.882Z,99014.50
2018-06-14T06:31:56.201Z,99009.80
2018-06-14T06:34:25.509Z,99008.13
2018-06-14T06:36:54.738Z,99014.39
2018-06-14T06:39:24.000Z,99012.56
2018-06-14T06:41:53.274Z,99012.28
2018-06-14T06:47:09.352Z,99014.12
2018-06-14T06:49:38.660Z,99008.27
2018-06-14T06:52:07.756Z,99013.61
2018-06-14T06:54:37.004Z,99007.02
2018-06-14T06:57:06.269Z,99005.91
2018-06-14T06:59:35.439Z,99003.61
2018-06-14T07:02:04.622Z,99007.04
2018-06-14T07:04:35.301Z,99003.41
2018-06-14T07:07:05.134Z,99000.63
2018-06-14T07:09:34.251Z,98997.53
2018-06-14T07:12:03.520Z,99005.42
2018-06-14T07:14:32.681Z,99004.10
2018-06-14T07:17:01.941Z,99004.35
2018-06-14T07:19:31.095Z,99006.23
2018-06-14T07:22:00.527Z,99002.31
2018-06-14T07:24:29.812Z,99005.78
2018-06-14T07:26:59.685Z,99000.53
2018-06-14T07:29:29.497Z,99005.05
2018-06-14T07:31:58.712Z,99001.81
2018-06-14T07:34:28.116Z,98999.36
2018-06-14T07:36:57.404Z,99004.25
2018-06-14T07:39:26.877Z,99008.52
2018-06-14T07:41:56.372Z,98977.05
2018-06-14T07:44:25.894Z,99010.14
2018-06-14T07:46:55.050Z,99006.06
2018-06-14T07:49:24.403Z,99006.73
2018-06-14T07:51:53.685Z,99007.08
2018-06-14T07:54:23.485Z,99003.72
2018-06-14T07:56:52.980Z,98999.67
2018-06-14T07:59:22.179Z,99003.32
2018-06-14T08:01:51.301Z,99005.47
2018-06-14T08:04:20.573Z,99008.72
2018-06-14T08:06:50.079Z,99009.83
2018-06-14T08:09:19.340Z,99005.58
2018-06-14T08:11:48.466Z,99007.14
2018-06-14T08:14:17.805Z,99013.83
2018-06-14T08:16:47.011Z,99007.84
2018-06-14T08:19:16.112Z,99001.87
2018-06-14T08:21:45.349Z,99003.18
2018-06-14T08:24:14.580Z,99003.84
2018-06-14T08:26:44.325Z,99002.40
2018-06-14T08:29:13.489Z,99004.47
2018-06-14T08:31:42.678Z,98999.37
2018-06-14T08:34:11.986Z,98999.44
2018-06-14T08:36:41.178Z,99004.72
2018-06-14T08:39:10.817Z,99003.04
2018-06-14T08:41:39.994Z,98998.89
2018-06-14T08:44:09.195Z,99002.59
2018-06-14T08:46:38.492Z,99011.25
2018-06-14T08:49:07.712Z,99011.56
2018-06-14T08:51:36.989Z,99016.99
2018-06-14T08:54:06.204Z,99014.17
2018-06-14T08:56:35.699Z,99005.59
2018-06-14T08:59:04.833Z,99003.21
2018-06-14T09:01:34.696Z,99001.88
2018-06-14T09:04:03.925Z,98996.11
2018-06-14T09:06:33.454Z,98994.30
2018-06-14T09:09:03.035Z,98996.36
2018-06-14T09:11:32.410Z,98996.72
2018-06-14T09:14:01.754Z,98998.98
2018-06-14T09:16:31.451Z,98993.97
2018-06-14T09:19:01.880Z,99002.72
2018-06-14T09:21:32.148Z,98995.83
2018-06-14T09:24:01.600Z,99007.98
2018-06-14T09:26:33.685Z,99000.92
2018-06-14T09:29:08.908Z,99001.38
2018-06-14T09:31:38.540Z,98992.19
2018-06-14T09:34:09.024Z,98989.58
2018-06-14T09:36:39.039Z,98982.03
2018-06-14T09:39:10.378Z,98984.80
2018-06-14T09:41:40.943Z,98984.71
2018-06-14T09:44:10.444Z,98982.49
2018-06-14T09:46:39.793Z,98986.77
2018-06-14T09:49:16.336Z,98992.81
2018-06-14T09:51:47.404Z,98997.51
2018-06-14T09:54:18.697Z,98992.75
2018-06-14T09:56:49.170Z,98984.81
2018-06-14T09:59:19.763Z,98985.55
2018-06-14T10:01:49.400Z,98987.08
2018-06-14T10:04:18.762Z,98983.96
2018-06-14T10:06:48.369Z,98993.56
2018-06-14T10:09:18.258Z,98986.75
2018-06-14T10:11:48.425Z,98990.92
2018-06-14T10:14:17.884Z,98981.11
2018-06-14T10:16:47.325Z,98988.44
2018-06-14T10:19:16.808Z,98988.24
2018-06-14T10:21:46.290Z,98986.73
2018-06-14T10:24:15.601Z,98990.46
2018-06-14T10:26:45.131Z,98985.56
2018-06-14T10:29:14.800Z,98995.16
2018-06-14T10:31:44.588Z,98992.18
2018-06-14T10:34:14.041Z,98995.25
2018-06-14T10:36:43.593Z,98988.53
2018-06-14T10:39:13.252Z,98989.69
2018-06-14T10:41:43.407Z,98984.94
2018-06-14T10:44:13.552Z,98993.91
2018-06-14T10:46:43.220Z,98989.72
2018-06-14T10:49:12.826Z,98961.75
2018-06-14T10:51:42.250Z,98990.44
2018-06-14T10:54:12.120Z,98988.37
2018-06-14T10:56:41.705Z,98994.81
2018-06-14T10:59:10.956Z,98985.73
2018-06-14T11:01:41.403Z,98995.78
2018-06-14T11:04:11.064Z,98980.48
2018-06-14T11:06:44.057Z,98981.45
2018-06-14T11:09:13.887Z,98982.32
2018-06-14T11:11:44.306Z,98981.66
2018-06-14T11:14:14.349Z,98973.91
2018-06-14T11:16:49.569Z,98969.78
2018-06-14T11:19:21.447Z,98961.12
2018-06-14T11:24:38.604Z,98960.67
2018-06-14T11:27:16.014Z,98954.72
2018-06-14T11:29:48.257Z,98950.16
2018-06-14T11:32:22.824Z,98947.88
2018-06-14T11:34:55.251Z,98948.20
2018-06-14T11:37:28.535Z,98948.98
2018-06-14T11:40:04.416Z,98954.36
2018-06-14T11:42:34.130Z,98950.88
2018-06-14T11:45:04.383Z,98951.39
2018-06-14T11:47:35.213Z,98939.80
2018-06-14T11:50:04.968Z,98936.70
2018-06-14T11:52:34.738Z,98941.22
2018-06-14T11:55:04.254Z,98937.22
2018-06-14T11:57:33.520Z,98928.18
2018-06-14T12:00:02.841Z,98924.67
2018-06-14T12:02:32.732Z,98925.03
2018-06-14T12:05:02.163Z,98921.20
2018-06-14T12:07:31.964Z,98925.01
2018-06-14T12:10:01.472Z,98919.67
2018-06-14T12:12:30.703Z,98916.98
2018-06-14T12:15:00.152Z,98914.17
2018-06-14T12:17:29.299Z,98918.77
2018-06-14T12:19:58.700Z,98918.23
2018-06-14T12:22:27.955Z,98916.25
2018-06-14T12:24:57.628Z,98913.38
2018-06-14T12:27:27.158Z,98916.18
2018-06-14T12:29:56.425Z,98915.22
2018-06-14T12:32:25.566Z,98908.08
2018-06-14T12:34:54.810Z,98895.83
2018-06-14T12:37:24.000Z,98899.14
2018-06-14T12:39:53.379Z,98897.92
2018-06-14T12:42:22.948Z,98900.47
2018-06-14T12:44:52.673Z,98889.55
2018-06-14T12:47:23.206Z,98887.16
2018-06-14T12:49:53.277Z,98886.02
2018-06-14T12:52:22.711Z,98882.48
2018-06-14T12:54:51.950Z,98896.68
2018-06-14T12:57:21.305Z,98891.15
2018-06-14T12:59:51.542Z,98883.30
2018-06-14T13:02:21.336Z,98885.31
2018-06-14T13:04:50.498Z,98879.52
2018-06-14T13:07:19.626Z,98872.20
2018-06-14T13:09:51.244Z,98868.46
2018-06-14T13:12:21.900Z,98868.78
2018-06-14T13:14:51.625Z,98865.73
2018-06-14T13:17:21.933Z,98866.05
2018-06-14T13:19:51.155Z,98866.19
2018-06-14T13:22:20.478Z,98860.42
2018-06-14T13:24:50.049Z,98865.16
2018-06-14T13:27:19.436Z,98860.58
2018-06-14T13:29:48.634Z,98863.30
2018-06-14T13:32:19.603Z,98857.88
2018-06-14T13:34:50.883Z,98855.70
2018-06-14T13:37:20.136Z,98859.88
2018-06-14T13:39:50.148Z,98858.17
2018-06-14T13:42:19.775Z,98852.78
2018-06-14T13:44:49.038Z,98847.61
2018-06-14T13:47:18.279Z,98845.28
2018-06-14T13:49:47.629Z,98844.04
2018-06-14T13:52:16.889Z,98843.20
2018-06-14T13:54:46.963Z,98848.48
2018-06-14T13:57:16.376Z,98849.05
2018-06-14T13:59:45.577Z,98815.62
2018-06-14T14:02:15.473Z,98831.48
2018-06-14T14:04:44.779Z,98832.08
2018-06-14T14:07:19.206Z,98833.84
2018-06-14T14:09:48.523Z,98779.68
2018-06-14T14:12:17.920Z,98828.48
2018-06-14T14:14:47.111Z,98830.09
2018-06-14T14:17:20.224Z,98836.03
2018-06-14T14:19:49.814Z,98833.82
2018-06-14T14:22:31.115Z,98838.37
2018-06-14T14:25:01.481Z,98829.52
2018-06-14T14:27:30.927Z,98826.13
2018-06-14T14:30:02.037Z,98831.34
2018-06-14T14:32:31.577Z,98827.53
2018-06-14T14:35:01.566Z,98830.02
2018-06-14T14:37:33.063Z,98827.02
2018-06-14T14:40:09.539Z,98821.45
2018-06-14T14:42:41.367Z,98820.39
2018-06-14T14:45:14.436Z,98829.44
2018-06-14T14:47:47.381Z,98825.31
2018-06-14T14:50:18.441Z,98824.53
2018-06-14T14:52:49.086Z,98819.98
2018-06-14T14:55:19.478Z,98821.50
2018-06-14T15:00:27.059Z,98826.97
2018-06-14T15:02:59.516Z,98824.42
2018-06-14T15:05:36.286Z,98823.72
2018-06-14T15:08:08.327Z,98827.56
2018-06-14T15:10:40.347Z,98825.97
2018-06-14T15:13:10.636Z,98828.77
2018-06-14T15:15:41.934Z,98828.30
2018-06-14T15:18:18.508Z,98823.22
2018-06-14T15:20:47.937Z,98828.13
2018-06-14T15:23:18.620Z,98827.95
2018-06-14T15:25:49.044Z,98821.05
2018-06-14T15:28:18.899Z,98826.12
2018-06-14T15:30:49.307Z,98827.78
2018-06-14T15:33:19.170Z,98819.63
2018-06-14T15:35:48.302Z,98823.46
2018-06-14T15:38:17.825Z,98827.05
2018-06-14T15:40:48.260Z,98824.11
2018-06-14T15:43:18.216Z,98816.80
2018-06-14T15:45:48.641Z,98820.09
2018-06-14T15:48:18.923Z,98819.20
2018-06-14T15:50:50.365Z,98825.03
2018-06-14T15:53:19.681Z,98818.58
2018-06-14T15:56:02.509Z,98821.78
2018-06-14T15:58:32.127Z,98816.97
2018-06-14T16:01:03.270Z,98816.48
2018-06-14T16:03:32.981Z,98824.38
2018-06-14T16:06:02.327Z,98822.74
2018-06-14T16:08:32.009Z,98820.23
2018-06-14T16:11:02.023Z,98825.28
2018-06-14T16:13:31.255Z,98822.09
2018-06-14T16:16:00.543Z,98823.55
2018-06-14T16:18:29.613Z,98823.16
2018-06-14T16:20:59.314Z,98819.13
2018-06-14T16:23:28.580Z,98827.64
2018-06-14T16:25:57.829Z,98821.95
2018-06-14T16:28:28.178Z,98825.81
2018-06-14T16:30:58.446Z,98823.72
2018-06-14T16:33:27.713Z,98831.26
2018-06-14T16:35:57.087Z,98826.84
2018-06-14T16:38:26.177Z,98833.02
2018-06-14T16:40:55.351Z,98825.78
2018-06-14T16:43:24.705Z,98827.23
2018-06-14T16:45:54.024Z,98827.86
2018-06-14T16:48:24.125Z,98823.19
2018-06-14T16:50:53.363Z,98834.08
2018-06-14T16:53:22.597Z,98827.19
2018-06-14T16:55:51.732Z,98827.08
2018-06-14T16:58:21.164Z,98823.83
2018-06-14T17:00:50.693Z,98829.84
2018-06-14T17:03:19.804Z,98826.58
2018-06-14T17:05:49.677Z,98821.36
2018-06-14T17:08:18.790Z,98822.91
2018-06-14T17:10:47.978Z,98826.63
2018-06-14T17:13:17.164Z,98818.56
2018-06-14T17:15:46.226Z,98825.30
2018-06-14T17:18:15.510Z,98827.55
2018-06-14T17:20:44.665Z,98826.21
2018-06-14T17:23:13.911Z,98827.72
2018-06-14T17:25:43.197Z,98831.59
2018-06-14T17:28:12.348Z,98823.28
2018-06-14T17:30:41.731Z,98823.83
2018-06-14T17:33:10.927Z,98830.36
2018-06-14T17:35:40.066Z,98826.00
2018-06-14T17:38:09.209Z,98831.71
2018-06-14T17:40:38.342Z,98836.36
2018-06-14T17:43:07.475Z,98836.52
2018-06-14T17:45:36.975Z,98838.41
2018-06-14T17:48:06.217Z,98836.18
2018-06-14T17:50:35.445Z,98845.67
2018-06-14T17:53:04.633Z,98839.95
2018-06-14T17:55:33.907Z,98848.50
2018-06-14T17:58:04.103Z,98845.04
2018-06-14T18:00:33.431Z,98851.70
2018-06-14T18:03:02.763Z,98849.92
2018-06-14T18:05:31.965Z,98851.03
2018-06-14T18:08:01.130Z,98852.94
2018-06-14T18:10:30.353Z,98861.22
2018-06-14T18:12:59.831Z,98859.57
2018-06-14T18:15:30.494Z,98863.02
2018-06-14T18:17:59.636Z,98869.41
2018-06-14T18:20:28.785Z,98873.66
2018-06-14T18:22:57.882Z,98871.63
2018-06-14T18:25:27.369Z,98866.27
2018-06-14T18:27:56.723Z,98876.81
2018-06-14T18:30:25.875Z,98881.77
2018-06-14T18:32:55.290Z,98882.88
2018-06-14T18:35:33.112Z,98883.98
2018-06-14T18:38:03.505Z,98891.25
2018-06-14T18:40:33.094Z,98893.16
2018-06-14T18:43:02.243Z,98888.56
2018-06-14T18:45:33.571Z,98889.91
2018-06-14T18:48:02.888Z,98888.67
2018-06-14T18:50:32.093Z,98899.88
2018-06-14T18:53:01.344Z,98893.27
2018-06-14T18:55:30.482Z,98903.01
2018-06-14T18:58:00.002Z,98893.36
2018-06-14T19:00:29.270Z,98901.67
2018-06-14T19:03:00.509Z,98900.08
2018-06-14T19:05:31.145Z,98895.34
2018-06-14T19:08:02.488Z,98904.77
2018-06-14T19:10:33.354Z,98902.52
2018-06-14T19:13:02.739Z,98905.31
2018-06-14T19:15:32.028Z,98909.48
2018-06-14T19:18:01.223Z,98913.96
2018-06-14T19:20:30.549Z,98915.97
2018-06-14T19:23:01.577Z,98921.83
2018-06-14T19:25:30.772Z,98920.05
2018-06-14T19:27:59.990Z,98922.84
2018-06-14T19:30:29.302Z,98923.05
2018-06-14T19:32:58.544Z,98929.00
2018-06-14T19:35:28.894Z,98932.44
2018-06-14T19:37:58.111Z,98934.31
2018-06-14T19:40:27.485Z,98940.92
2018-06-14T19:42:56.779Z,98943.11
2018-06-14T19:45:26.184Z,98940.38
2018-06-14T19:47:55.396Z,98952.25
2018-06-14T19:50:24.557Z,98951.31
2018-06-14T19:52:53.722Z,98954.67
2018-06-14T19:55:22.988Z,98956.37
2018-06-14T19:57:52.897Z,98957.35
2018-06-14T20:00:22.014Z,98959.85
2018-06-14T20:02:51.190Z,98960.19
2018-06-14T20:05:20.355Z,98963.34
2018-06-14T20:07:49.577Z,98961.11
2018-06-14T20:10:18.690Z,98957.72
2018-06-14T20:12:47.984Z,98965.95
2018-06-14T20:15:17.156Z,98966.84
2018-06-14T20:17:46.343Z,98975.84
2018-06-14T20:20:16.091Z,98973.34
2018-06-14T20:22:46.315Z,98972.48
2018-06-14T20:25:16.333Z,98976.61
2018-06-14T20:27:46.248Z,98979.40
2018-06-14T20:30:15.434Z,98978.67
2018-06-14T20:32:44.752Z,98985.03
2018-06-14T20:35:14.142Z,98985.16
2018-06-14T20:37:43.342Z,98994.37
2018-06-14T20:40:12.593Z,98991.48
2018-06-14T20:42:41.762Z,98993.73
2018-06-14T20:45:10.914Z,99001.48
2018-06-14T20:47:40.144Z,99006.50
2018-06-14T20:50:10.349Z,99016.78
2018-06-14T20:52:39.632Z,99021.52
2018-06-14T20:55:08.754Z,99018.49
2018-06-14T20:57:37.980Z,99028.09
2018-06-14T21:00:07.147Z,99036.79
2018-06-14T21:02:36.439Z,99033.45
2018-06-14T21:05:06.573Z,99034.41
2018-06-14T21:07:35.722Z,99036.38
2018-06-14T21:10:04.974Z,99040.16
2018-06-14T21:12:34.181Z,99033.00
2018-06-14T21:15:03.356Z,99041.83
2018-06-14T21:17:32.518Z,99042.22
2018-06-14T21:20:01.755Z,99042.22
2018-06-14T21:22:30.851Z,99039.00
2018-06-14T21:25:00.033Z,99047.97
2018-06-14T21:27:29.274Z,99048.66
2018-06-14T21:29:58.571Z,99048.91
2018-06-14T21:32:27.719Z,99045.91
2018-06-14T21:34:57.036Z,99053.06
2018-06-14T21:37:26.199Z,99054.41
2018-06-14T21:39:55.591Z,99057.86
2018-06-14T21:42:24.744Z,99058.73
2018-06-14T21:44:53.938Z,99054.96
2018-06-14T21:47:23.127Z,99065.61
2018-06-14T21:49:52.342Z,99063.00
2018-06-14T21:52:21.531Z,99056.28
2018-06-14T21:54:50.729Z,99048.06
2018-06-14T21:57:19.930Z,99051.61
2018-06-14T21:59:49.132Z,99051.42
2018-06-14T22:02:18.332Z,99054.96
2018-06-14T22:04:47.580Z,99049.88
2018-06-14T22:07:16.772Z,99056.88
2018-06-14T22:09:45.957Z,99057.49
2018-06-14T22:12:15.099Z,99050.52
2018-06-14T22:14:44.207Z,99054.18
2018-06-14T22:17:13.414Z,99055.52
2018-06-14T22:19:42.538Z,99058.13
2018-06-14T22:22:11.689Z,99045.94
2018-06-14T22:24:40.843Z,99052.43
2018-06-14T22:27:10.305Z,99057.84
2018-06-14T22:29:39.590Z,99056.70
2018-06-14T22:32:08.804Z,99054.59
2018-06-14T22:34:49.065Z,99059.81
2018-06-14T22:37:19.278Z,99061.28
2018-06-14T22:39:48.381Z,99065.30
2018-06-14T22:42:17.674Z,99059.84
2018-06-14T22:44:46.798Z,99047.34
2018-06-14T22:47:15.985Z,99050.48
2018-06-14T22:49:45.588Z,99049.53
2018-06-14T22:52:53.116Z,99041.31
2018-06-14T22:55:23.413Z,99047.14
2018-06-14T22:57:52.670Z,99042.88
2018-06-14T23:01:32.983Z,99047.17
2018-06-14T23:04:02.678Z,99038.52
2018-06-14T23:06:32.503Z,99036.19
2018-06-14T23:09:12.265Z,99029.80
2018-06-14T23:11:41.759Z,99028.90
2018-06-14T23:14:10.922Z,99026.13
2018-06-14T23:16:40.117Z,99028.03
2018-06-14T23:19:09.347Z,99025.81
2018-06-14T23:21:38.646Z,99025.08
2018-06-14T23:24:07.758Z,99022.41
2018-06-14T23:26:36.924Z,99014.38
2018-06-14T23:29:06.751Z,99019.85
2018-06-14T23:31:36.163Z,99017.59
2018-06-14T23:34:05.973Z,99018.14
2018-06-14T23:36:35.158Z,99016.36
2018-06-14T23:39:05.505Z,99010.21
2018-06-14T23:41:34.682Z,99013.46
2018-06-14T23:44:04.078Z,99016.48
2018-06-14T23:46:33.209Z,99018.45
2018-06-14T23:49:02.454Z,99012.75
2018-06-14T23:51:31.664Z,99019.75
2018-06-14T23:54:01.896Z,99020.33
2018-06-14T23:56:31.149Z,99011.45
2018-06-14T23:59:00.413Z,99008.67
